sensor_id;sensor_type;location;lat;lon;timestamp;temperature;humidity
25983;DHT22;13773;48.868;10.730;2024-01-30T00:01:42;-0.30;99.90
25983;DHT22;13773;48.868;10.730;2024-01-30T00:04:08;-0.20;99.90
25983;DHT22;13773;48.868;10.730;2024-01-30T00:06:33;0.10;99.90
25983;DHT22;13773;48.868;10.730;2024-01-30T00:08:59;-0.10;99.90
25983;DHT22;13773;48.868;10.730;2024-01-30T00:11:25;-0.10;99.90
25983;DHT22;13773;48.868;10.730;2024-01-30T00:13:51;-0.10;99.90
25983;DHT22;13773;48.868;10.730;2024-01-30T00:16:24;0.00;99.90
25983;DHT22;13773;48.868;10.730;2024-01-30T00:18:51;0.30;99.90
25983;DHT22;13773;48.868;10.730;2024-01-30T00:21:17;0.30;99.90
25983;DHT22;13773;48.868;10.730;2024-01-30T00:23:43;0.20;99.90
25983;DHT22;13773;48.868;10.730;2024-01-30T00:26:09;0.00;99.90
25983;DHT22;13773;48.868;10.730;2024-01-30T00:28:34;-0.10;99.90
25983;DHT22;13773;48.868;10.730;2024-01-30T00:31:00;-0.30;99.90
25983;DHT22;13773;48.868;10.730;2024-01-30T00:33:26;-0.40;99.90
25983;DHT22;13773;48.868;10.730;2024-01-30T00:35:52;-0.50;99.90
25983;DHT22;13773;48.868;10.730;2024-01-30T00:38:17;-0.60;99.90
25983;DHT22;13773;48.868;10.730;2024-01-30T00:40:43;-0.40;99.90
25983;DHT22;13773;48.868;10.730;2024-01-30T00:43:09;0.00;99.90
25983;DHT22;13773;48.868;10.730;2024-01-30T00:45:35;0.40;99.90
25983;DHT22;13773;48.868;10.730;2024-01-30T00:48:00;0.50;99.90
25983;DHT22;13773;48.868;10.730;2024-01-30T00:50:26;0.60;99.90
25983;DHT22;13773;48.868;10.730;2024-01-30T00:52:52;0.60;99.90
25983;DHT22;13773;48.868;10.730;2024-01-30T00:55:17;1.20;99.90
25983;DHT22;13773;48.868;10.730;2024-01-30T00:57:43;1.10;99.90
25983;DHT22;13773;48.868;10.730;2024-01-30T01:00:09;1.30;99.90
25983;DHT22;13773;48.868;10.730;2024-01-30T01:02:35;1.60;99.90
25983;DHT22;13773;48.868;10.730;2024-01-30T01:05:02;1.70;99.90
25983;DHT22;13773;48.868;10.730;2024-01-30T01:07:28;2.00;99.90
25983;DHT22;13773;48.868;10.730;2024-01-30T01:09:54;1.70;99.90
25983;DHT22;13773;48.868;10.730;2024-01-30T01:12:19;1.70;99.90
25983;DHT22;13773;48.868;10.730;2024-01-30T01:14:45;1.60;99.90
25983;DHT22;13773;48.868;10.730;2024-01-30T01:17:11;1.50;99.90
25983;DHT22;13773;48.868;10.730;2024-01-30T01:19:37;1.30;99.90
25983;DHT22;13773;48.868;10.730;2024-01-30T01:22:03;1.30;99.90
25983;DHT22;13773;48.868;10.730;2024-01-30T01:24:31;1.10;99.90
25983;DHT22;13773;48.868;10.730;2024-01-30T01:26:58;1.20;99.90
25983;DHT22;13773;48.868;10.730;2024-01-30T01:29:24;3.70;99.90
25983;DHT22;13773;48.868;10.730;2024-01-30T01:31:55;1.10;99.90
25983;DHT22;13773;48.868;10.730;2024-01-30T01:34:21;1.20;99.90
25983;DHT22;13773;48.868;10.730;2024-01-30T01:36:47;0.90;99.90
25983;DHT22;13773;48.868;10.730;2024-01-30T01:39:13;0.80;99.90
25983;DHT22;13773;48.868;10.730;2024-01-30T01:41:38;0.60;99.90
25983;DHT22;13773;48.868;10.730;2024-01-30T01:44:04;0.70;99.90
25983;DHT22;13773;48.868;10.730;2024-01-30T01:46:33;0.80;99.90
25983;DHT22;13773;48.868;10.730;2024-01-30T01:49:00;0.60;99.90
25983;DHT22;13773;48.868;10.730;2024-01-30T01:51:28;0.80;99.90
25983;DHT22;13773;48.868;10.730;2024-01-30T01:53:56;0.80;99.90
25983;DHT22;13773;48.868;10.730;2024-01-30T01:56:23;0.80;99.90
25983;DHT22;13773;48.868;10.730;2024-01-30T01:58:50;0.70;99.90
25983;DHT22;13773;48.868;10.730;2024-01-30T02:01:19;0.90;99.90
25983;DHT22;13773;48.868;10.730;2024-01-30T02:03:46;0.70;99.90
25983;DHT22;13773;48.868;10.730;2024-01-30T02:06:16;0.60;99.90
25983;DHT22;13773;48.868;10.730;2024-01-30T02:08:42;0.60;99.90
25983;DHT22;13773;48.868;10.730;2024-01-30T02:11:08;0.50;99.90
25983;DHT22;13773;48.868;10.730;2024-01-30T02:13:36;0.60;99.90
25983;DHT22;13773;48.868;10.730;2024-01-30T02:16:02;0.60;99.90
25983;DHT22;13773;48.868;10.730;2024-01-30T02:18:27;0.50;99.90
25983;DHT22;13773;48.868;10.730;2024-01-30T02:20:56;0.30;99.90
25983;DHT22;13773;48.868;10.730;2024-01-30T02:23:24;0.50;99.90
25983;DHT22;13773;48.868;10.730;2024-01-30T02:25:53;0.40;99.90
25983;DHT22;13773;48.868;10.730;2024-01-30T02:28:19;0.70;99.90
25983;DHT22;13773;48.868;10.730;2024-01-30T02:30:46;0.60;99.90
25983;DHT22;13773;48.868;10.730;2024-01-30T02:33:12;0.30;99.90
25983;DHT22;13773;48.868;10.730;2024-01-30T02:35:38;0.40;99.90
25983;DHT22;13773;48.868;10.730;2024-01-30T02:38:04;0.40;99.90
25983;DHT22;13773;48.868;10.730;2024-01-30T02:40:31;0.40;99.90
25983;DHT22;13773;48.868;10.730;2024-01-30T02:42:58;0.30;99.90
25983;DHT22;13773;48.868;10.730;2024-01-30T02:45:24;0.10;99.90
25983;DHT22;13773;48.868;10.730;2024-01-30T02:47:50;0.30;99.90
25983;DHT22;13773;48.868;10.730;2024-01-30T02:50:15;0.20;99.90
25983;DHT22;13773;48.868;10.730;2024-01-30T02:52:42;0.20;99.90
25983;DHT22;13773;48.868;10.730;2024-01-30T02:55:11;0.40;99.90
25983;DHT22;13773;48.868;10.730;2024-01-30T02:57:37;0.20;99.90
25983;DHT22;13773;48.868;10.730;2024-01-30T03:00:04;0.20;99.90
25983;DHT22;13773;48.868;10.730;2024-01-30T03:02:32;0.20;99.90
25983;DHT22;13773;48.868;10.730;2024-01-30T03:04:58;0.20;99.90
25983;DHT22;13773;48.868;10.730;2024-01-30T03:07:24;0.40;99.90
25983;DHT22;13773;48.868;10.730;2024-01-30T03:09:50;0.50;99.90
25983;DHT22;13773;48.868;10.730;2024-01-30T03:12:16;0.40;99.90
25983;DHT22;13773;48.868;10.730;2024-01-30T03:14:41;0.30;99.90
25983;DHT22;13773;48.868;10.730;2024-01-30T03:17:07;0.00;99.90
25983;DHT22;13773;48.868;10.730;2024-01-30T03:19:33;-0.10;99.90
25983;DHT22;13773;48.868;10.730;2024-01-30T03:21:59;-0.10;99.90
25983;DHT22;13773;48.868;10.730;2024-01-30T03:24:25;-0.10;99.90
25983;DHT22;13773;48.868;10.730;2024-01-30T03:26:50;-0.10;99.90
25983;DHT22;13773;48.868;10.730;2024-01-30T03:29:16;-0.40;99.90
25983;DHT22;13773;48.868;10.730;2024-01-30T03:31:42;-0.20;99.90
25983;DHT22;13773;48.868;10.730;2024-01-30T03:34:07;-0.30;99.90
25983;DHT22;13773;48.868;10.730;2024-01-30T03:36:33;-0.50;99.90
25983;DHT22;13773;48.868;10.730;2024-01-30T03:39:00;-0.40;99.90
25983;DHT22;13773;48.868;10.730;2024-01-30T03:41:26;-0.50;99.90
25983;DHT22;13773;48.868;10.730;2024-01-30T03:43:52;-0.20;99.90
25983;DHT22;13773;48.868;10.730;2024-01-30T03:46:18;-0.20;99.90
25983;DHT22;13773;48.868;10.730;2024-01-30T03:48:45;-0.30;99.90
25983;DHT22;13773;48.868;10.730;2024-01-30T03:51:11;-0.40;99.90
25983;DHT22;13773;48.868;10.730;2024-01-30T03:53:42;-0.40;99.90
25983;DHT22;13773;48.868;10.730;2024-01-30T03:56:08;-0.40;99.90
25983;DHT22;13773;48.868;10.730;2024-01-30T03:58:34;-0.40;99.90
25983;DHT22;13773;48.868;10.730;2024-01-30T04:01:00;-0.50;99.90
25983;DHT22;13773;48.868;10.730;2024-01-30T04:03:26;-0.50;99.90
25983;DHT22;13773;48.868;10.730;2024-01-30T04:05:52;-0.60;99.90
25983;DHT22;13773;48.868;10.730;2024-01-30T04:08:18;-0.70;99.90
25983;DHT22;13773;48.868;10.730;2024-01-30T04:10:44;-0.70;99.90
25983;DHT22;13773;48.868;10.730;2024-01-30T04:13:10;-0.70;99.90
25983;DHT22;13773;48.868;10.730;2024-01-30T04:15:35;-0.60;99.90
25983;DHT22;13773;48.868;10.730;2024-01-30T04:18:01;-0.20;99.90
25983;DHT22;13773;48.868;10.730;2024-01-30T04:20:27;-0.30;99.90
25983;DHT22;13773;48.868;10.730;2024-01-30T04:22:53;-0.40;99.90
25983;DHT22;13773;48.868;10.730;2024-01-30T04:25:19;-0.50;99.90
25983;DHT22;13773;48.868;10.730;2024-01-30T04:27:44;-0.60;99.90
25983;DHT22;13773;48.868;10.730;2024-01-30T04:30:10;-0.40;99.90
25983;DHT22;13773;48.868;10.730;2024-01-30T04:32:36;-0.40;99.90
25983;DHT22;13773;48.868;10.730;2024-01-30T04:35:02;-0.40;99.90
25983;DHT22;13773;48.868;10.730;2024-01-30T04:37:28;-0.50;99.90
25983;DHT22;13773;48.868;10.730;2024-01-30T04:39:53;-0.50;99.90
25983;DHT22;13773;48.868;10.730;2024-01-30T04:42:19;-0.50;99.90
25983;DHT22;13773;48.868;10.730;2024-01-30T04:44:45;-0.40;99.90
25983;DHT22;13773;48.868;10.730;2024-01-30T04:47:11;-0.50;99.90
25983;DHT22;13773;48.868;10.730;2024-01-30T04:49:39;-0.50;99.90
25983;DHT22;13773;48.868;10.730;2024-01-30T04:52:06;-0.60;99.90
25983;DHT22;13773;48.868;10.730;2024-01-30T04:54:31;-0.70;99.90
25983;DHT22;13773;48.868;10.730;2024-01-30T04:56:57;-0.80;99.90
25983;DHT22;13773;48.868;10.730;2024-01-30T04:59:24;-0.60;99.90
25983;DHT22;13773;48.868;10.730;2024-01-30T05:01:49;-0.70;99.90
25983;DHT22;13773;48.868;10.730;2024-01-30T05:04:15;-0.70;99.90
25983;DHT22;13773;48.868;10.730;2024-01-30T05:06:41;-0.80;99.90
25983;DHT22;13773;48.868;10.730;2024-01-30T05:09:06;-0.90;99.90
25983;DHT22;13773;48.868;10.730;2024-01-30T05:11:37;-1.00;99.90
25983;DHT22;13773;48.868;10.730;2024-01-30T05:14:04;-0.90;99.90
25983;DHT22;13773;48.868;10.730;2024-01-30T05:16:29;-1.00;99.90
25983;DHT22;13773;48.868;10.730;2024-01-30T05:18:55;-1.00;99.90
25983;DHT22;13773;48.868;10.730;2024-01-30T05:21:21;-0.90;99.90
25983;DHT22;13773;48.868;10.730;2024-01-30T05:23:46;-1.00;99.90
25983;DHT22;13773;48.868;10.730;2024-01-30T05:26:12;-1.00;99.90
25983;DHT22;13773;48.868;10.730;2024-01-30T05:28:38;-1.00;99.90
25983;DHT22;13773;48.868;10.730;2024-01-30T05:31:03;-1.00;99.90
25983;DHT22;13773;48.868;10.730;2024-01-30T05:33:29;-1.10;99.90
25983;DHT22;13773;48.868;10.730;2024-01-30T05:35:55;-1.10;99.90
25983;DHT22;13773;48.868;10.730;2024-01-30T05:38:20;-1.20;99.90
25983;DHT22;13773;48.868;10.730;2024-01-30T05:40:46;-1.40;99.90
25983;DHT22;13773;48.868;10.730;2024-01-30T05:43:12;-1.50;99.90
25983;DHT22;13773;48.868;10.730;2024-01-30T05:45:38;-1.50;99.90
25983;DHT22;13773;48.868;10.730;2024-01-30T05:48:04;-1.50;99.90
25983;DHT22;13773;48.868;10.730;2024-01-30T05:50:30;-1.60;99.90
25983;DHT22;13773;48.868;10.730;2024-01-30T05:52:56;-1.60;99.90
25983;DHT22;13773;48.868;10.730;2024-01-30T05:55:22;-1.70;99.90
25983;DHT22;13773;48.868;10.730;2024-01-30T05:57:47;-1.70;99.90
25983;DHT22;13773;48.868;10.730;2024-01-30T06:00:13;-1.70;99.90
25983;DHT22;13773;48.868;10.730;2024-01-30T06:02:39;-1.70;99.90
25983;DHT22;13773;48.868;10.730;2024-01-30T06:05:05;-1.70;99.90
25983;DHT22;13773;48.868;10.730;2024-01-30T06:07:31;-1.60;99.90
25983;DHT22;13773;48.868;10.730;2024-01-30T06:09:57;-1.50;99.90
25983;DHT22;13773;48.868;10.730;2024-01-30T06:12:23;-1.50;99.90
25983;DHT22;13773;48.868;10.730;2024-01-30T06:14:48;-1.40;99.90
25983;DHT22;13773;48.868;10.730;2024-01-30T06:17:14;-1.40;99.90
25983;DHT22;13773;48.868;10.730;2024-01-30T06:19:40;-1.50;99.90
25983;DHT22;13773;48.868;10.730;2024-01-30T06:22:05;-1.50;99.90
25983;DHT22;13773;48.868;10.730;2024-01-30T06:24:31;-1.40;99.90
25983;DHT22;13773;48.868;10.730;2024-01-30T06:26:57;-1.60;99.90
25983;DHT22;13773;48.868;10.730;2024-01-30T06:29:22;-1.60;99.90
25983;DHT22;13773;48.868;10.730;2024-01-30T06:31:50;-1.60;99.90
25983;DHT22;13773;48.868;10.730;2024-01-30T06:34:16;-1.60;99.90
25983;DHT22;13773;48.868;10.730;2024-01-30T06:36:42;-1.50;99.90
25983;DHT22;13773;48.868;10.730;2024-01-30T06:39:07;-1.50;99.90
25983;DHT22;13773;48.868;10.730;2024-01-30T06:41:33;-1.50;99.90
25983;DHT22;13773;48.868;10.730;2024-01-30T06:43:59;-1.40;99.90
25983;DHT22;13773;48.868;10.730;2024-01-30T06:46:25;-1.60;99.90
25983;DHT22;13773;48.868;10.730;2024-01-30T06:48:51;-1.60;99.90
25983;DHT22;13773;48.868;10.730;2024-01-30T06:51:16;-1.50;99.90
25983;DHT22;13773;48.868;10.730;2024-01-30T06:53:42;-1.30;99.90
25983;DHT22;13773;48.868;10.730;2024-01-30T06:56:08;-1.40;99.90
25983;DHT22;13773;48.868;10.730;2024-01-30T06:58:33;-1.40;99.90
25983;DHT22;13773;48.868;10.730;2024-01-30T07:00:59;-1.50;99.90
25983;DHT22;13773;48.868;10.730;2024-01-30T07:03:25;-1.50;99.90
25983;DHT22;13773;48.868;10.730;2024-01-30T07:05:51;-1.50;99.90
25983;DHT22;13773;48.868;10.730;2024-01-30T07:08:17;-1.50;99.90
25983;DHT22;13773;48.868;10.730;2024-01-30T07:10:43;-1.40;99.90
25983;DHT22;13773;48.868;10.730;2024-01-30T07:13:11;-1.40;99.90
25983;DHT22;13773;48.868;10.730;2024-01-30T07:15:36;-1.40;99.90
25983;DHT22;13773;48.868;10.730;2024-01-30T07:18:03;-1.30;99.90
25983;DHT22;13773;48.868;10.730;2024-01-30T07:20:30;-1.20;99.90
25983;DHT22;13773;48.868;10.730;2024-01-30T07:22:58;-0.80;99.90
25983;DHT22;13773;48.868;10.730;2024-01-30T07:25:23;-0.70;99.90
25983;DHT22;13773;48.868;10.730;2024-01-30T07:27:53;-0.40;99.90
25983;DHT22;13773;48.868;10.730;2024-01-30T07:30:19;-0.70;99.90
25983;DHT22;13773;48.868;10.730;2024-01-30T07:32:46;-0.70;99.90
25983;DHT22;13773;48.868;10.730;2024-01-30T07:35:12;-0.70;99.90
25983;DHT22;13773;48.868;10.730;2024-01-30T07:37:37;-0.70;99.90
25983;DHT22;13773;48.868;10.730;2024-01-30T07:40:04;-0.70;99.90
25983;DHT22;13773;48.868;10.730;2024-01-30T07:42:30;-0.70;99.90
25983;DHT22;13773;48.868;10.730;2024-01-30T07:44:55;-0.70;99.90
25983;DHT22;13773;48.868;10.730;2024-01-30T07:47:21;-0.50;99.90
25983;DHT22;13773;48.868;10.730;2024-01-30T07:49:47;-0.10;99.90
25983;DHT22;13773;48.868;10.730;2024-01-30T07:52:13;0.60;99.90
25983;DHT22;13773;48.868;10.730;2024-01-30T07:54:39;-0.40;99.90
25983;DHT22;13773;48.868;10.730;2024-01-30T07:57:04;0.10;99.90
25983;DHT22;13773;48.868;10.730;2024-01-30T07:59:30;0.00;99.90
25983;DHT22;13773;48.868;10.730;2024-01-30T08:01:56;-0.10;99.90
25983;DHT22;13773;48.868;10.730;2024-01-30T08:04:21;-0.30;99.90
25983;DHT22;13773;48.868;10.730;2024-01-30T08:06:47;0.60;99.90
25983;DHT22;13773;48.868;10.730;2024-01-30T08:09:12;0.20;99.90
25983;DHT22;13773;48.868;10.730;2024-01-30T08:11:38;-0.10;99.90
25983;DHT22;13773;48.868;10.730;2024-01-30T08:14:04;-0.10;99.90
25983;DHT22;13773;48.868;10.730;2024-01-30T08:16:29;0.00;99.90
25983;DHT22;13773;48.868;10.730;2024-01-30T08:18:55;0.10;99.90
25983;DHT22;13773;48.868;10.730;2024-01-30T08:21:23;0.10;99.90
25983;DHT22;13773;48.868;10.730;2024-01-30T08:23:48;1.50;99.90
25983;DHT22;13773;48.868;10.730;2024-01-30T08:26:14;0.40;99.90
25983;DHT22;13773;48.868;10.730;2024-01-30T08:28:40;0.40;99.90
25983;DHT22;13773;48.868;10.730;2024-01-30T08:31:05;0.50;99.90
25983;DHT22;13773;48.868;10.730;2024-01-30T08:33:31;0.30;99.90
25983;DHT22;13773;48.868;10.730;2024-01-30T08:35:57;0.40;99.90
25983;DHT22;13773;48.868;10.730;2024-01-30T08:38:22;0.70;99.90
25983;DHT22;13773;48.868;10.730;2024-01-30T08:40:49;1.10;99.90
25983;DHT22;13773;48.868;10.730;2024-01-30T08:43:15;0.60;99.90
25983;DHT22;13773;48.868;10.730;2024-01-30T08:45:41;0.80;99.90
25983;DHT22;13773;48.868;10.730;2024-01-30T08:48:07;0.80;99.90
25983;DHT22;13773;48.868;10.730;2024-01-30T08:50:33;0.60;99.90
25983;DHT22;13773;48.868;10.730;2024-01-30T08:52:59;0.70;99.90
25983;DHT22;13773;48.868;10.730;2024-01-30T08:55:24;1.00;99.90
25983;DHT22;13773;48.868;10.730;2024-01-30T08:57:50;1.00;99.90
25983;DHT22;13773;48.868;10.730;2024-01-30T09:00:17;1.30;99.90
25983;DHT22;13773;48.868;10.730;2024-01-30T09:02:43;1.40;99.90
25983;DHT22;13773;48.868;10.730;2024-01-30T09:05:09;1.60;99.90
25983;DHT22;13773;48.868;10.730;2024-01-30T09:07:34;1.70;99.90
25983;DHT22;13773;48.868;10.730;2024-01-30T09:10:00;1.90;99.90
25983;DHT22;13773;48.868;10.730;2024-01-30T09:12:26;1.80;99.90
25983;DHT22;13773;48.868;10.730;2024-01-30T09:14:52;1.90;99.90
25983;DHT22;13773;48.868;10.730;2024-01-30T09:17:17;2.00;99.90
25983;DHT22;13773;48.868;10.730;2024-01-30T09:19:43;2.10;99.90
25983;DHT22;13773;48.868;10.730;2024-01-30T09:22:09;2.30;99.90
25983;DHT22;13773;48.868;10.730;2024-01-30T09:24:34;2.50;99.90
25983;DHT22;13773;48.868;10.730;2024-01-30T09:27:00;2.70;99.90
25983;DHT22;13773;48.868;10.730;2024-01-30T09:29:26;2.80;99.90
25983;DHT22;13773;48.868;10.730;2024-01-30T09:31:52;3.00;99.90
25983;DHT22;13773;48.868;10.730;2024-01-30T09:34:18;3.10;99.90
25983;DHT22;13773;48.868;10.730;2024-01-30T09:36:43;3.20;99.90
25983;DHT22;13773;48.868;10.730;2024-01-30T09:39:09;3.10;99.90
25983;DHT22;13773;48.868;10.730;2024-01-30T09:41:44;3.30;99.90
25983;DHT22;13773;48.868;10.730;2024-01-30T09:44:12;3.50;99.90
25983;DHT22;13773;48.868;10.730;2024-01-30T09:46:39;3.80;99.90
25983;DHT22;13773;48.868;10.730;2024-01-30T09:49:06;4.10;99.90
25983;DHT22;13773;48.868;10.730;2024-01-30T09:51:34;4.10;99.90
25983;DHT22;13773;48.868;10.730;2024-01-30T09:54:00;4.30;99.90
25983;DHT22;13773;48.868;10.730;2024-01-30T09:56:25;4.50;99.90
25983;DHT22;13773;48.868;10.730;2024-01-30T09:58:51;4.70;99.90
25983;DHT22;13773;48.868;10.730;2024-01-30T10:01:17;4.90;99.90
25983;DHT22;13773;48.868;10.730;2024-01-30T10:03:44;7.60;99.90
25983;DHT22;13773;48.868;10.730;2024-01-30T10:06:11;5.10;99.90
25983;DHT22;13773;48.868;10.730;2024-01-30T10:08:37;5.10;99.90
25983;DHT22;13773;48.868;10.730;2024-01-30T10:11:03;5.30;99.90
25983;DHT22;13773;48.868;10.730;2024-01-30T10:13:29;5.50;99.90
25983;DHT22;13773;48.868;10.730;2024-01-30T10:15:55;5.70;99.90
25983;DHT22;13773;48.868;10.730;2024-01-30T10:18:24;5.90;99.90
25983;DHT22;13773;48.868;10.730;2024-01-30T10:20:51;6.00;99.90
25983;DHT22;13773;48.868;10.730;2024-01-30T10:23:18;6.10;99.90
25983;DHT22;13773;48.868;10.730;2024-01-30T10:25:44;6.30;99.90
25983;DHT22;13773;48.868;10.730;2024-01-30T10:28:11;6.30;99.90
25983;DHT22;13773;48.868;10.730;2024-01-30T10:30:36;6.30;99.90
25983;DHT22;13773;48.868;10.730;2024-01-30T10:33:02;6.20;99.90
25983;DHT22;13773;48.868;10.730;2024-01-30T10:35:28;6.20;99.90
25983;DHT22;13773;48.868;10.730;2024-01-30T10:37:56;6.20;99.90
25983;DHT22;13773;48.868;10.730;2024-01-30T10:40:27;6.20;99.90
25983;DHT22;13773;48.868;10.730;2024-01-30T10:42:53;6.20;99.90
25983;DHT22;13773;48.868;10.730;2024-01-30T10:45:22;6.30;99.90
25983;DHT22;13773;48.868;10.730;2024-01-30T10:47:54;6.30;99.90
25983;DHT22;13773;48.868;10.730;2024-01-30T10:50:24;6.40;99.90
25983;DHT22;13773;48.868;10.730;2024-01-30T10:52:50;6.60;99.90
25983;DHT22;13773;48.868;10.730;2024-01-30T10:55:16;6.70;99.90
25983;DHT22;13773;48.868;10.730;2024-01-30T10:57:43;6.60;99.90
25983;DHT22;13773;48.868;10.730;2024-01-30T11:00:11;6.80;99.90
25983;DHT22;13773;48.868;10.730;2024-01-30T11:02:46;6.90;99.90
25983;DHT22;13773;48.868;10.730;2024-01-30T11:05:12;7.00;99.90
25983;DHT22;13773;48.868;10.730;2024-01-30T11:07:39;9.30;99.90
25983;DHT22;13773;48.868;10.730;2024-01-30T11:10:07;7.10;99.90
25983;DHT22;13773;48.868;10.730;2024-01-30T11:12:38;7.20;99.90
25983;DHT22;13773;48.868;10.730;2024-01-30T11:15:11;7.10;99.90
25983;DHT22;13773;48.868;10.730;2024-01-30T11:17:43;7.10;99.90
25983;DHT22;13773;48.868;10.730;2024-01-30T11:20:20;7.00;99.90
25983;DHT22;13773;48.868;10.730;2024-01-30T11:22:47;6.90;99.90
25983;DHT22;13773;48.868;10.730;2024-01-30T11:25:14;7.10;99.90
25983;DHT22;13773;48.868;10.730;2024-01-30T11:27:41;7.20;99.90
25983;DHT22;13773;48.868;10.730;2024-01-30T11:30:07;7.40;99.90
25983;DHT22;13773;48.868;10.730;2024-01-30T11:32:33;7.30;99.90
25983;DHT22;13773;48.868;10.730;2024-01-30T11:34:59;7.50;99.90
25983;DHT22;13773;48.868;10.730;2024-01-30T11:37:25;7.50;99.90
25983;DHT22;13773;48.868;10.730;2024-01-30T11:39:54;7.60;99.90
25983;DHT22;13773;48.868;10.730;2024-01-30T11:42:21;7.70;99.90
25983;DHT22;13773;48.868;10.730;2024-01-30T11:44:49;7.70;99.90
25983;DHT22;13773;48.868;10.730;2024-01-30T11:47:15;7.70;99.90
25983;DHT22;13773;48.868;10.730;2024-01-30T11:49:41;7.70;99.90
25983;DHT22;13773;48.868;10.730;2024-01-30T11:52:07;7.80;99.90
25983;DHT22;13773;48.868;10.730;2024-01-30T11:54:33;8.00;99.90
25983;DHT22;13773;48.868;10.730;2024-01-30T11:56:58;8.00;99.90
25983;DHT22;13773;48.868;10.730;2024-01-30T11:59:24;7.70;99.90
25983;DHT22;13773;48.868;10.730;2024-01-30T12:01:52;7.80;99.90
25983;DHT22;13773;48.868;10.730;2024-01-30T12:04:18;7.80;99.90
25983;DHT22;13773;48.868;10.730;2024-01-30T12:06:43;8.00;99.90
25983;DHT22;13773;48.868;10.730;2024-01-30T12:09:09;8.00;99.90
25983;DHT22;13773;48.868;10.730;2024-01-30T12:11:48;8.10;99.90
25983;DHT22;13773;48.868;10.730;2024-01-30T12:14:15;8.30;99.90
25983;DHT22;13773;48.868;10.730;2024-01-30T12:16:41;8.30;99.90
25983;DHT22;13773;48.868;10.730;2024-01-30T12:19:07;8.30;99.90
25983;DHT22;13773;48.868;10.730;2024-01-30T12:21:34;8.30;99.90
25983;DHT22;13773;48.868;10.730;2024-01-30T12:24:00;8.30;99.90
25983;DHT22;13773;48.868;10.730;2024-01-30T12:26:26;8.50;99.90
25983;DHT22;13773;48.868;10.730;2024-01-30T12:28:55;8.60;99.90
25983;DHT22;13773;48.868;10.730;2024-01-30T12:31:32;8.50;99.90
25983;DHT22;13773;48.868;10.730;2024-01-30T12:33:59;8.50;99.90
25983;DHT22;13773;48.868;10.730;2024-01-30T12:36:25;8.50;99.90
25983;DHT22;13773;48.868;10.730;2024-01-30T12:38:51;8.50;99.90
25983;DHT22;13773;48.868;10.730;2024-01-30T12:41:17;8.30;99.90
25983;DHT22;13773;48.868;10.730;2024-01-30T12:43:44;8.30;99.90
25983;DHT22;13773;48.868;10.730;2024-01-30T12:46:09;8.30;99.90
25983;DHT22;13773;48.868;10.730;2024-01-30T12:48:35;8.30;99.90
25983;DHT22;13773;48.868;10.730;2024-01-30T12:51:01;8.30;99.90
25983;DHT22;13773;48.868;10.730;2024-01-30T12:53:27;8.30;99.90
25983;DHT22;13773;48.868;10.730;2024-01-30T12:55:53;8.10;99.90
25983;DHT22;13773;48.868;10.730;2024-01-30T12:58:20;8.30;99.90
25983;DHT22;13773;48.868;10.730;2024-01-30T13:00:45;8.40;99.90
25983;DHT22;13773;48.868;10.730;2024-01-30T13:03:12;8.50;99.90
25983;DHT22;13773;48.868;10.730;2024-01-30T13:05:38;8.50;99.90
25983;DHT22;13773;48.868;10.730;2024-01-30T13:08:04;8.60;99.90
25983;DHT22;13773;48.868;10.730;2024-01-30T13:10:30;8.60;99.90
25983;DHT22;13773;48.868;10.730;2024-01-30T13:12:56;8.50;99.90
25983;DHT22;13773;48.868;10.730;2024-01-30T13:15:21;8.40;99.90
25983;DHT22;13773;48.868;10.730;2024-01-30T13:17:48;8.50;99.90
25983;DHT22;13773;48.868;10.730;2024-01-30T13:20:14;8.60;99.90
25983;DHT22;13773;48.868;10.730;2024-01-30T13:22:45;8.50;99.90
25983;DHT22;13773;48.868;10.730;2024-01-30T13:25:10;8.60;99.90
25983;DHT22;13773;48.868;10.730;2024-01-30T13:27:37;8.60;99.90
25983;DHT22;13773;48.868;10.730;2024-01-30T13:30:03;8.60;99.90
25983;DHT22;13773;48.868;10.730;2024-01-30T13:32:29;8.60;99.90
25983;DHT22;13773;48.868;10.730;2024-01-30T13:34:55;8.70;99.90
25983;DHT22;13773;48.868;10.730;2024-01-30T13:37:21;8.80;99.90
25983;DHT22;13773;48.868;10.730;2024-01-30T13:39:47;8.90;99.90
25983;DHT22;13773;48.868;10.730;2024-01-30T13:42:13;9.00;99.90
25983;DHT22;13773;48.868;10.730;2024-01-30T13:44:38;9.00;99.90
25983;DHT22;13773;48.868;10.730;2024-01-30T13:47:04;9.10;99.90
25983;DHT22;13773;48.868;10.730;2024-01-30T13:49:30;9.10;99.90
25983;DHT22;13773;48.868;10.730;2024-01-30T13:51:56;8.90;99.90
25983;DHT22;13773;48.868;10.730;2024-01-30T13:54:21;8.90;99.90
25983;DHT22;13773;48.868;10.730;2024-01-30T13:56:47;8.80;99.90
25983;DHT22;13773;48.868;10.730;2024-01-30T13:59:13;8.60;99.90
25983;DHT22;13773;48.868;10.730;2024-01-30T14:01:38;8.40;99.90
25983;DHT22;13773;48.868;10.730;2024-01-30T14:04:04;8.40;99.90
25983;DHT22;13773;48.868;10.730;2024-01-30T14:06:30;8.30;99.90
25983;DHT22;13773;48.868;10.730;2024-01-30T14:08:55;8.20;99.90
25983;DHT22;13773;48.868;10.730;2024-01-30T14:11:21;8.30;99.90
25983;DHT22;13773;48.868;10.730;2024-01-30T14:13:47;8.30;99.90
25983;DHT22;13773;48.868;10.730;2024-01-30T14:16:12;8.40;99.90
25983;DHT22;13773;48.868;10.730;2024-01-30T14:18:38;8.40;99.90
25983;DHT22;13773;48.868;10.730;2024-01-30T14:21:04;8.30;99.90
25983;DHT22;13773;48.868;10.730;2024-01-30T14:23:29;8.30;99.90
25983;DHT22;13773;48.868;10.730;2024-01-30T14:25:55;8.30;99.90
25983;DHT22;13773;48.868;10.730;2024-01-30T14:28:21;8.20;99.90
25983;DHT22;13773;48.868;10.730;2024-01-30T14:30:47;8.20;99.90
25983;DHT22;13773;48.868;10.730;2024-01-30T14:33:12;8.20;99.90
25983;DHT22;13773;48.868;10.730;2024-01-30T14:35:39;8.30;99.90
25983;DHT22;13773;48.868;10.730;2024-01-30T14:38:04;8.20;99.90
25983;DHT22;13773;48.868;10.730;2024-01-30T14:40:31;8.30;99.90
25983;DHT22;13773;48.868;10.730;2024-01-30T14:42:56;8.20;99.90
25983;DHT22;13773;48.868;10.730;2024-01-30T14:45:22;8.10;99.90
25983;DHT22;13773;48.868;10.730;2024-01-30T14:47:47;8.00;99.90
25983;DHT22;13773;48.868;10.730;2024-01-30T14:50:13;8.10;99.90
25983;DHT22;13773;48.868;10.730;2024-01-30T14:52:42;8.00;99.90
25983;DHT22;13773;48.868;10.730;2024-01-30T14:55:08;7.90;99.90
25983;DHT22;13773;48.868;10.730;2024-01-30T14:57:34;7.80;99.90
25983;DHT22;13773;48.868;10.730;2024-01-30T15:00:00;7.80;99.90
25983;DHT22;13773;48.868;10.730;2024-01-30T15:02:26;7.80;99.90
25983;DHT22;13773;48.868;10.730;2024-01-30T15:04:51;7.70;99.90
25983;DHT22;13773;48.868;10.730;2024-01-30T15:07:18;7.50;99.90
25983;DHT22;13773;48.868;10.730;2024-01-30T15:09:44;7.50;99.90
25983;DHT22;13773;48.868;10.730;2024-01-30T15:12:10;7.40;99.90
25983;DHT22;13773;48.868;10.730;2024-01-30T15:14:35;7.40;99.90
25983;DHT22;13773;48.868;10.730;2024-01-30T15:17:01;7.30;99.90
25983;DHT22;13773;48.868;10.730;2024-01-30T15:19:27;7.20;99.90